Time;durP1;ratioP1;P1;durP2;ratioP2;P2;SDS_P1;SDS_P2;PMS_P1;PMS_P2;Temp;Humidity;BMP_temperature;BMP_pressure;BME280_temperature;BME280_humidity;BME280_pressure;Samples;Min_cycle;Max_cycle;Signal;HPM_P1;HPM_P2
2022/12/01 00:01:56;;;;;;;11.15;4.03;;;;;;;2.85;100.00;98328.31;5038434;28;20471;-76
2022/12/01 00:04:22;;;;;;;6.97;3.42;;;;;;;2.86;100.00;98332.66;5037836;28;20029;-76
2022/12/01 00:06:47;;;;;;;8.60;3.33;;;;;;;2.76;100.00;98322.31;5038177;28;20066;-76
2022/12/01 00:11:57;;;;;;;9.07;4.13;;;;;;;2.85;100.00;98336.22;5057656;28;20047;-77
2022/12/01 00:14:22;;;;;;;9.10;4.15;;;;;;;2.88;100.00;98344.09;5065102;28;20090;-76
2022/12/01 00:16:48;;;;;;;12.98;4.78;;;;;;;2.87;100.00;98333.53;5057601;28;20066;-76
2022/12/01 00:19:13;;;;;;;9.27;4.30;;;;;;;2.88;100.00;98337.94;5074238;28;20032;-78
2022/12/01 00:21:39;;;;;;;7.63;3.75;;;;;;;2.86;100.00;98339.75;5091143;28;20222;-77
2022/12/01 00:24:06;;;;;;;7.57;4.15;;;;;;;2.68;100.00;98327.72;5057604;28;20020;-77
2022/12/01 00:26:31;;;;;;;9.82;4.13;;;;;;;2.72;100.00;98330.31;5057673;28;20028;-75
2022/12/01 00:28:58;;;;;;;8.35;3.85;;;;;;;2.83;100.00;98331.88;5074144;28;20165;-77
2022/12/01 00:31:24;;;;;;;8.25;4.85;;;;;;;2.78;100.00;98339.00;5090813;28;20024;-77
2022/12/01 00:33:50;;;;;;;8.90;4.25;;;;;;;2.76;100.00;98344.31;5074077;28;20027;-77
2022/12/01 00:36:41;;;;;;;10.35;4.90;;;;;;;2.86;100.00;98351.16;5057541;28;20120;-78
2022/12/01 00:39:50;;;;;;;5.70;3.50;;;;;;;2.83;100.00;98351.22;4959007;28;20034;-77
2022/12/01 00:42:35;;;;;;;8.25;3.88;;;;;;;2.83;100.00;98329.25;4895368;29;20190;-77
2022/12/01 00:45:40;;;;;;;;;;;;;;;;;;;;;
2022/12/01 00:48:45;;;;;;;6.65;3.70;;;;;;;2.78;100.00;98344.28;5021233;28;20037;-78
2022/12/01 00:51:36;;;;;;;6.85;3.72;;;;;;;2.81;100.00;98337.19;5049453;28;20075;-78
2022/12/01 00:54:02;;;;;;;6.78;3.40;;;;;;;2.74;100.00;98333.78;5030124;28;20033;-75
2022/12/01 00:56:27;;;;;;;8.07;3.95;;;;;;;2.72;100.00;98327.66;5049274;28;20076;-77
2022/12/01 00:58:53;;;;;;;7.85;4.15;;;;;;;2.81;100.00;98339.81;5065874;28;20028;-76
2022/12/01 01:01:19;;;;;;;5.68;3.40;;;;;;;2.83;100.00;98337.16;5032454;28;20035;-77
2022/12/01 01:03:44;;;;;;;6.82;3.08;;;;;;;2.74;100.00;98333.78;5032404;28;20428;-77
2022/12/01 01:06:11;;;;;;;5.68;3.40;;;;;;;2.87;100.00;98338.81;5016157;28;20025;-77
2022/12/01 01:08:37;;;;;;;5.00;2.35;;;;;;;2.83;100.00;98331.88;5049109;28;20052;-77
2022/12/01 01:11:03;;;;;;;5.47;3.03;;;;;;;2.80;100.00;98330.13;5015918;28;20447;-77
2022/12/01 01:13:29;;;;;;;4.45;2.92;;;;;;;2.66;100.00;98311.94;5040045;28;20458;-76
2022/12/01 01:16:00;;;;;;;6.20;3.58;;;;;;;2.77;100.00;98318.78;5073202;28;20035;-76
2022/12/01 01:18:27;;;;;;;5.32;3.50;;;;;;;2.86;100.00;98323.91;5073264;28;20028;-76
2022/12/01 01:21:01;;;;;;;7.25;3.25;;;;;;;2.75;100.00;98318.81;5089904;28;20024;-76
2022/12/01 01:23:26;;;;;;;6.60;3.75;;;;;;;2.67;100.00;98305.75;5056403;28;20101;-76
2022/12/01 01:25:52;;;;;;;10.35;3.63;;;;;;;2.83;100.00;98319.53;5056625;28;20066;-76
2022/12/01 01:28:20;;;;;;;10.30;4.20;;;;;;;2.77;100.00;98313.50;5089922;28;20032;-76
2022/12/01 01:30:46;;;;;;;7.35;3.85;;;;;;;2.69;100.00;98303.94;5089623;28;20035;-77
2022/12/01 01:33:12;;;;;;;8.30;3.95;;;;;;;2.80;100.00;98306.38;5056326;28;20043;-76
2022/12/01 01:35:37;;;;;;;6.47;3.50;;;;;;;2.82;100.00;98309.00;5073196;28;20024;-77
2022/12/01 01:38:06;;;;;;;5.65;3.30;;;;;;;2.74;100.00;98286.22;5106437;28;20051;-77
2022/12/01 01:40:31;;;;;;;6.53;3.10;;;;;;;2.78;100.00;98294.09;5056250;28;20089;-75
2022/12/01 01:42:57;;;;;;;6.32;3.30;;;;;;;2.74;100.00;98296.78;5072964;28;20479;-76
2022/12/01 01:45:28;;;;;;;4.60;2.90;;;;;;;2.86;100.00;98293.03;5089702;28;20399;-76
2022/12/01 01:47:56;;;;;;;3.40;2.37;;;;;;;2.79;100.00;98290.56;5072807;28;20020;-76
2022/12/01 01:50:26;;;;;;;4.90;2.70;;;;;;;2.66;100.00;98277.59;5072964;28;20270;-75
2022/12/01 01:52:57;;;;;;;6.07;2.90;;;;;;;2.67;100.00;98292.56;5055819;28;20037;-75
2022/12/01 01:55:22;;;;;;;6.93;3.10;;;;;;;2.72;100.00;98292.44;5072808;28;20020;-77
2022/12/01 01:57:48;;;;;;;12.05;5.22;;;;;;;2.73;100.00;98297.72;5072679;28;20051;-77
2022/12/01 02:00:17;;;;;;;17.90;6.75;;;;;;;2.72;100.00;98282.75;5055995;28;20024;-77
2022/12/01 02:02:45;;;;;;;21.10;8.20;;;;;;;2.74;100.00;98280.94;5056043;28;20036;-77
2022/12/01 02:05:18;;;;;;;17.13;6.45;;;;;;;2.77;100.00;98279.19;5072578;28;20078;-77
2022/12/01 02:07:45;;;;;;;10.10;4.57;;;;;;;2.73;100.00;98263.38;5072514;28;20032;-76
2022/12/01 02:10:12;;;;;;;10.20;4.35;;;;;;;2.80;100.00;98282.59;5055655;28;20082;-76
2022/12/01 02:13:20;;;;;;;7.72;3.95;;;;;;;2.86;100.00;98297.47;5072535;28;20077;-77
2022/12/01 02:16:25;;;;;;;7.80;3.55;;;;;;;2.83;100.00;98284.34;4981237;28;20042;-76
2022/12/01 02:18:59;;;;;;;6.20;2.67;;;;;;;2.88;100.00;98287.75;5055506;28;20050;-76
2022/12/01 02:21:34;;;;;;;8.93;3.80;;;;;;;2.84;100.00;98276.38;5072386;28;20106;-77
2022/12/01 02:24:18;;;;;;;5.72;3.50;;;;;;;2.86;100.00;98285.13;5090663;28;20471;-76
2022/12/01 02:26:51;;;;;;;4.97;2.70;;;;;;;2.79;100.00;98277.34;5090229;28;20023;-77
2022/12/01 02:29:40;;;;;;;5.63;3.10;;;;;;;2.97;100.00;98290.19;5055742;28;20062;-76
2022/12/01 02:32:09;;;;;;;4.15;2.33;;;;;;;2.74;100.00;98269.50;5092536;28;20024;-76
2022/12/01 02:34:42;;;;;;;3.92;2.13;;;;;;;2.79;100.00;98272.06;5076003;28;20032;-76
2022/12/01 02:37:20;;;;;;;3.97;2.50;;;;;;;2.65;100.00;98260.00;5070766;28;20099;-76
2022/12/01 02:40:11;;;;;;;6.80;3.08;;;;;;;2.61;100.00;98247.78;5075958;28;20020;-76
2022/12/01 02:42:49;;;;;;;6.25;2.45;;;;;;;2.54;100.00;98250.56;5059228;28;20114;-77
2022/12/01 02:45:27;;;;;;;3.65;2.17;;;;;;;2.52;100.00;98252.34;5059417;28;20032;-76
2022/12/01 02:47:54;;;;;;;5.10;2.53;;;;;;;2.54;100.00;98250.56;5075999;28;20503;-77
2022/12/01 02:50:22;;;;;;;5.22;3.33;;;;;;;2.61;100.00;98263.63;5075826;28;20023;-77
2022/12/01 02:52:48;;;;;;;7.65;3.75;;;;;;;2.53;100.00;98257.59;5075743;28;20039;-76
2022/12/01 02:55:13;;;;;;;10.95;3.45;;;;;;;2.50;100.00;98248.84;5067677;28;20024;-76
2022/12/01 02:57:39;;;;;;;6.78;3.63;;;;;;;2.62;100.00;98262.69;5074676;28;20046;-76
2022/12/01 03:00:05;;;;;;;6.32;3.42;;;;;;;2.63;100.00;98267.09;5095236;28;20023;-76
2022/12/01 03:02:50;;;;;;;6.15;3.63;;;;;;;2.70;100.00;98271.38;5064914;28;20052;-78
2022/12/01 03:05:31;;;;;;;9.05;3.42;;;;;;;2.65;100.00;98274.97;5059182;28;20031;-76
2022/12/01 03:08:12;;;;;;;7.20;3.72;;;;;;;2.56;100.00;98277.78;5075602;28;20032;-77
2022/12/01 03:10:52;;;;;;;7.28;3.95;;;;;;;2.57;100.00;98282.19;5075366;28;20070;-77
2022/12/01 03:13:50;;;;;;;8.63;4.55;;;;;;;2.59;100.00;98277.72;5051887;28;20032;-76
2022/12/01 03:16:26;;;;;;;7.47;4.07;;;;;;;2.68;100.00;98286.34;5038018;28;20496;-77
2022/12/01 03:19:05;;;;;;;7.18;3.40;;;;;;;2.43;100.00;98274.50;5055582;28;20411;-76
2022/12/01 03:21:39;;;;;;;5.07;3.17;;;;;;;2.47;100.00;98276.19;5055668;28;20078;-77
2022/12/01 03:24:16;;;;;;;5.30;3.15;;;;;;;2.50;100.00;98286.69;5072370;28;20541;-76
2022/12/01 03:26:45;;;;;;;5.18;2.95;;;;;;;2.39;100.00;98272.84;5055102;28;20162;-76
2022/12/01 03:29:15;;;;;;;4.75;2.95;;;;;;;2.44;100.00;98278.88;5055441;28;20028;-77
2022/12/01 03:31:45;;;;;;;6.68;3.70;;;;;;;2.43;100.00;98271.84;5071747;28;20035;-76
2022/12/01 03:34:22;;;;;;;5.85;3.88;;;;;;;2.52;100.00;98282.25;5071742;28;20035;-75
2022/12/01 03:37:11;;;;;;;10.13;4.50;;;;;;;2.46;100.00;98284.16;5055192;28;20032;-76
2022/12/01 03:39:38;;;;;;;10.88;4.65;;;;;;;2.48;100.00;98277.94;5032404;28;20545;-76
2022/12/01 03:42:25;;;;;;;8.75;5.20;;;;;;;2.43;100.00;98274.50;5038280;28;20402;-76
2022/12/01 03:44:56;;;;;;;7.93;4.45;;;;;;;2.52;100.00;98286.69;5071795;28;20340;-75
2022/12/01 03:47:25;;;;;;;9.57;4.80;;;;;;;2.57;100.00;98287.47;5054966;28;20078;-76
2022/12/01 03:49:52;;;;;;;8.77;3.90;;;;;;;2.44;100.00;98276.25;5054977;28;20502;-76
2022/12/01 03:52:45;;;;;;;6.18;3.58;;;;;;;2.48;100.00;98287.63;5054949;28;20062;-77
2022/12/01 03:55:21;;;;;;;6.18;3.42;;;;;;;2.49;100.00;98290.22;5086326;28;20036;-77
2022/12/01 03:58:01;;;;;;;5.50;3.33;;;;;;;2.40;100.00;98274.56;5038209;28;20020;-77
2022/12/01 04:00:27;;;;;;;4.82;3.22;;;;;;;2.40;100.00;98279.00;5054947;28;20020;-77
2022/12/01 04:02:57;;;;;;;6.35;3.65;;;;;;;2.32;100.00;98281.75;5038029;28;20042;-76
2022/12/01 04:05:24;;;;;;;7.63;3.20;;;;;;;2.35;100.00;98270.25;5037748;28;20021;-76
2022/12/01 04:07:50;;;;;;;6.53;3.75;;;;;;;2.39;100.00;98266.69;5054763;28;20131;-76
2022/12/01 04:10:15;;;;;;;6.25;3.22;;;;;;;2.27;100.00;98273.06;5037683;28;20545;-76
2022/12/01 04:12:41;;;;;;;5.88;3.42;;;;;;;2.23;100.00;98266.06;5054611;28;20051;-77
2022/12/01 04:15:11;;;;;;;5.50;3.33;;;;;;;2.29;100.00;98276.53;5070928;28;20044;-75
2022/12/01 04:17:37;;;;;;;8.57;4.10;;;;;;;2.32;100.00;98271.19;5058124;28;20027;-76
2022/12/01 04:20:06;;;;;;;9.25;4.97;;;;;;;2.21;100.00;98275.81;5058034;28;20026;-77
2022/12/01 04:22:32;;;;;;;7.88;4.78;;;;;;;2.34;100.00;98279.09;5091156;28;20510;-76
2022/12/01 04:24:58;;;;;;;10.32;4.35;;;;;;;2.41;100.00;98280.72;5057609;28;20032;-76
2022/12/01 04:27:24;;;;;;;8.65;4.80;;;;;;;2.32;100.00;98280.88;5057532;28;20074;-77
2022/12/01 04:29:49;;;;;;;18.73;5.38;;;;;;;2.30;100.00;98267.72;5074455;28;20024;-77
2022/12/01 04:32:15;;;;;;;10.20;4.32;;;;;;;2.35;100.00;98279.06;5057273;28;20032;-76
2022/12/01 04:34:41;;;;;;;13.50;5.45;;;;;;;2.39;100.00;98272.84;5074057;28;20032;-77
2022/12/01 04:37:08;;;;;;;9.73;5.72;;;;;;;2.42;100.00;98288.63;5057472;28;20055;-76
2022/12/01 04:39:34;;;;;;;11.70;5.80;;;;;;;2.34;100.00;98285.22;5057416;28;20024;-76
2022/12/01 04:42:00;;;;;;;11.45;7.03;;;;;;;2.36;100.00;98278.16;5057278;28;20035;-79
2022/12/01 04:44:26;;;;;;;11.32;6.82;;;;;;;2.41;100.00;98286.00;5057154;28;20077;-79
2022/12/01 04:46:54;;;;;;;12.32;7.00;;;;;;;2.40;100.00;98284.25;5091206;28;20020;-77
2022/12/01 04:49:20;;;;;;;12.20;5.50;;;;;;;2.44;100.00;98292.09;5058677;28;20471;-79
2022/12/01 04:51:46;;;;;;;8.35;4.75;;;;;;;2.51;100.00;98292.84;5074751;28;20028;-78
2022/12/01 04:54:12;;;;;;;7.22;3.45;;;;;;;2.41;100.00;98280.72;5073432;28;20072;-76
2022/12/01 04:56:38;;;;;;;6.75;4.00;;;;;;;2.35;100.00;98286.97;5091843;28;20145;-76
2022/12/01 04:59:04;;;;;;;9.10;4.55;;;;;;;2.32;100.00;98286.16;5073910;28;20140;-77
2022/12/01 05:01:29;;;;;;;6.93;4.18;;;;;;;2.50;100.00;98294.63;5056509;28;20487;-76
2022/12/01 05:03:58;;;;;;;7.22;4.07;;;;;;;2.47;100.00;98296.44;5056839;28;20058;-79
2022/12/01 05:06:27;;;;;;;5.45;3.78;;;;;;;2.63;100.00;98298.78;5090449;28;20027;-77
2022/12/01 05:08:57;;;;;;;7.90;4.50;;;;;;;2.32;100.00;98270.31;5073496;28;20028;-77
2022/12/01 05:11:24;;;;;;;11.27;4.82;;;;;;;2.52;100.00;98295.44;5058170;28;20027;-77
2022/12/01 05:13:55;;;;;;;5.47;3.65;;;;;;;2.49;100.00;98278.81;5074004;28;20035;-78
2022/12/01 05:16:32;;;;;;;6.40;2.47;;;;;;;2.48;100.00;98263.88;5058583;28;20066;-77
2022/12/01 05:21:48;;;;;;;5.68;3.25;;;;;;;2.55;100.00;98274.28;5073800;28;20042;-76
2022/12/01 05:24:14;;;;;;;7.13;3.75;;;;;;;2.49;100.00;98271.75;5070612;28;20086;-76
2022/12/01 05:26:40;;;;;;;5.55;3.25;;;;;;;2.41;100.00;98270.16;5087692;28;20479;-77
2022/12/01 05:29:12;;;;;;;4.80;3.30;;;;;;;2.34;100.00;98248.28;5070605;28;20028;-77
2022/12/01 05:31:38;;;;;;;4.65;3.03;;;;;;;2.40;100.00;98258.72;5054289;28;20039;-77
2022/12/01 05:34:04;;;;;;;5.70;3.53;;;;;;;2.45;100.00;98254.25;5070755;28;20032;-77
2022/12/01 05:36:31;;;;;;;5.63;3.40;;;;;;;2.52;100.00;98265.56;5087746;28;20036;-77
2022/12/01 05:38:56;;;;;;;7.80;3.50;;;;;;;2.55;100.00;98249.66;5087772;28;20529;-76
2022/12/01 05:41:22;;;;;;;9.02;4.80;;;;;;;2.52;100.00;98257.63;5087577;28;20135;-76
2022/12/01 05:43:47;;;;;;;9.75;5.18;;;;;;;2.44;100.00;98249.84;5088327;28;20440;-77
2022/12/01 05:46:13;;;;;;;8.10;4.50;;;;;;;2.36;100.00;98243.84;5053544;28;20028;-76
2022/12/01 05:48:38;;;;;;;9.77;4.35;;;;;;;2.40;100.00;98250.78;5070446;28;20066;-75
2022/12/01 05:51:09;;;;;;;9.73;4.93;;;;;;;2.32;100.00;98244.78;5053690;28;20036;-76
2022/12/01 05:53:35;;;;;;;12.82;6.60;;;;;;;2.44;100.00;98252.50;5053263;28;20036;-77
2022/12/01 05:56:00;;;;;;;11.52;6.43;;;;;;;2.31;100.00;98258.03;5053101;28;20027;-77
2022/12/01 05:58:28;;;;;;;16.13;7.57;;;;;;;2.21;100.00;98251.19;5071511;28;20115;-76
2022/12/01 06:00:54;;;;;;;18.73;8.40;;;;;;;2.07;100.00;98239.09;5055903;28;20039;-76
2022/12/01 06:03:19;;;;;;;31.75;12.13;;;;;;;2.19;100.00;98248.53;5089177;28;20028;-76
2022/12/01 06:05:45;;;;;;;16.20;5.68;;;;;;;2.27;100.00;98256.34;5071524;28;20032;-76
2022/12/01 06:08:10;;;;;;;17.42;7.78;;;;;;;2.26;100.00;98254.59;5077342;28;20035;-78
2022/12/01 06:10:36;;;;;;;19.30;9.68;;;;;;;2.22;100.00;98261.69;5077137;28;20081;-78
2022/12/01 06:13:01;;;;;;;20.67;10.52;;;;;;;2.15;100.00;98262.72;5110212;28;20024;-78
2022/12/01 06:15:27;;;;;;;15.18;7.25;;;;;;;2.15;100.00;98278.53;5060227;28;20093;-77
2022/12/01 06:17:53;;;;;;;12.35;6.75;;;;;;;2.10;100.00;98283.00;5059942;28;20092;-77
2022/12/01 06:20:18;;;;;;;16.23;7.85;;;;;;;2.12;100.00;98286.50;5059854;28;20115;-77
2022/12/01 06:22:44;;;;;;;18.73;9.30;;;;;;;1.98;100.00;98267.38;5093685;28;20032;-77
2022/12/01 06:25:10;;;;;;;16.98;9.02;;;;;;;1.94;100.00;98273.63;5059839;28;20020;-77
2022/12/01 06:27:35;;;;;;;56.42;25.35;;;;;;;1.97;100.00;98278.84;5059851;28;20024;-77
2022/12/01 06:30:01;;;;;;;23.50;10.82;;;;;;;1.94;100.00;98273.63;5059432;28;20368;-77
2022/12/01 06:32:27;;;;;;;14.60;8.13;;;;;;;1.89;100.00;98278.09;5076600;28;20412;-77
2022/12/01 06:34:52;;;;;;;20.05;8.95;;;;;;;1.81;100.00;98258.88;5059463;28;20106;-77
2022/12/01 06:37:18;;;;;;;21.42;7.82;;;;;;;1.98;100.00;98281.44;5059886;28;20071;-78
2022/12/01 06:39:43;;;;;;;19.10;9.10;;;;;;;2.01;100.00;98276.13;5076445;28;20077;-76
2022/12/01 06:42:09;;;;;;;16.25;8.07;;;;;;;1.97;100.00;98287.59;5075929;28;20556;-76
2022/12/01 06:44:34;;;;;;;17.90;7.97;;;;;;;1.99;100.00;98277.94;5076418;28;20407;-77
2022/12/01 06:47:00;;;;;;;14.25;7.90;;;;;;;1.90;100.00;98277.19;5094253;28;20024;-76
2022/12/01 06:49:25;;;;;;;14.82;7.28;;;;;;;1.92;100.00;98283.31;5059468;28;20024;-76
2022/12/01 06:51:51;;;;;;;17.25;9.27;;;;;;;1.91;100.00;98281.56;5076001;28;20028;-76
2022/12/01 06:54:17;;;;;;;11.77;6.32;;;;;;;1.86;100.00;98264.94;5076189;28;20081;-77
2022/12/01 06:56:43;;;;;;;13.38;5.50;;;;;;;1.72;100.00;98266.94;5093953;28;20472;-77
2022/12/01 06:59:09;;;;;;;18.60;9.50;;;;;;;1.91;100.00;98289.47;5075928;28;20032;-77
2022/12/01 07:01:35;;;;;;;11.27;6.07;;;;;;;1.83;100.00;98283.47;5059724;28;20042;-78
2022/12/01 07:04:00;;;;;;;8.20;4.57;;;;;;;1.80;100.00;98286.13;5075767;28;20422;-76
2022/12/01 07:06:28;;;;;;;26.63;11.90;;;;;;;1.60;100.00;98258.31;5075926;28;20036;-76
2022/12/01 07:08:54;;;;;;;14.80;6.65;;;;;;;1.62;100.00;98282.91;5059084;28;20032;-77
2022/12/01 07:11:19;;;;;;;12.07;7.07;;;;;;;1.67;100.00;98276.66;5093639;28;20186;-77
2022/12/01 07:13:45;;;;;;;15.35;7.43;;;;;;;1.61;100.00;98273.25;5094389;28;20419;-77
2022/12/01 07:16:10;;;;;;;10.80;6.18;;;;;;;1.78;100.00;98291.47;5056802;28;20025;-76
2022/12/01 07:18:37;;;;;;;12.32;6.22;;;;;;;1.70;100.00;98289.81;5044835;28;20540;-77
2022/12/01 07:21:07;;;;;;;15.05;7.05;;;;;;;1.61;100.00;98288.19;5058928;28;20030;-77
2022/12/01 07:23:33;;;;;;;32.17;13.68;;;;;;;1.71;100.00;98294.19;5059113;28;20039;-77
2022/12/01 07:26:02;;;;;;;22.40;9.27;;;;;;;1.78;100.00;98301.13;5056029;28;20020;-77
2022/12/01 07:28:31;;;;;;;26.50;11.13;;;;;;;1.89;100.00;98301.81;5093601;28;20479;-76
2022/12/01 07:31:04;;;;;;;13.77;6.38;;;;;;;2.05;100.00;98301.56;5075740;28;20035;-78
2022/12/01 07:33:30;;;;;;;13.48;6.45;;;;;;;2.15;100.00;98300.50;5061275;28;20032;-77
2022/12/01 07:35:56;;;;;;;12.57;6.90;;;;;;;2.22;100.00;98306.53;5075367;28;20020;-77
2022/12/01 07:38:21;;;;;;;11.38;5.55;;;;;;;2.15;100.00;98281.19;5043729;28;20032;-76
2022/12/01 07:40:47;;;;;;;20.98;5.80;;;;;;;2.14;100.00;98276.78;5058485;28;20082;-76
2022/12/01 07:43:12;;;;;;;16.73;7.05;;;;;;;2.17;100.00;98271.47;5081786;28;20028;-77
2022/12/01 07:45:38;;;;;;;15.68;7.07;;;;;;;2.00;100.00;98268.25;5045855;28;20028;-78
2022/12/01 07:48:04;;;;;;;15.65;6.82;;;;;;;2.06;100.00;98273.44;5051332;28;20032;-77
2022/12/01 07:50:29;;;;;;;13.20;6.38;;;;;;;2.15;100.00;98262.72;5093342;28;20034;-77
2022/12/01 07:52:55;;;;;;;11.50;5.65;;;;;;;2.24;100.00;98274.88;5075179;28;20154;-78
2022/12/01 07:55:23;;;;;;;15.98;6.00;;;;;;;2.11;100.00;98261.88;5081479;28;20547;-78
2022/12/01 07:57:49;;;;;;;20.45;9.73;;;;;;;2.04;100.00;98264.63;5068495;28;20479;-77
2022/12/01 08:00:15;;;;;;;20.63;9.75;;;;;;;2.19;100.00;98269.66;5051421;28;20040;-77
2022/12/01 08:02:40;;;;;;;24.23;11.88;;;;;;;2.23;100.00;98275.75;5058541;28;20040;-76
2022/12/01 08:05:06;;;;;;;19.35;9.32;;;;;;;2.20;100.00;98263.50;5057997;28;20115;-77
2022/12/01 08:07:32;;;;;;;13.20;7.07;;;;;;;2.31;100.00;98272.06;5093053;28;20035;-76
2022/12/01 08:09:57;;;;;;;15.10;7.50;;;;;;;2.30;100.00;98269.47;5075017;28;20031;-77
2022/12/01 08:12:27;;;;;;;18.85;8.35;;;;;;;2.38;100.00;98272.84;5091313;28;20130;-76
2022/12/01 08:14:53;;;;;;;18.40;7.70;;;;;;;2.35;100.00;98265.84;5091624;28;20044;-77
2022/12/01 08:17:19;;;;;;;13.77;7.00;;;;;;;2.40;100.00;98271.91;5091340;28;20418;-77
2022/12/01 08:19:44;;;;;;;15.45;7.05;;;;;;;2.41;100.00;98270.16;5091460;28;20023;-77
2022/12/01 08:22:10;;;;;;;14.02;6.72;;;;;;;2.40;100.00;98264.00;5057922;28;20032;-76
2022/12/01 08:24:35;;;;;;;13.50;7.15;;;;;;;2.42;100.00;98263.97;5074505;28;20051;-78
2022/12/01 08:27:01;;;;;;;12.65;6.28;;;;;;;2.46;100.00;98269.16;5091133;28;20081;-77
2022/12/01 08:29:26;;;;;;;13.55;6.75;;;;;;;2.49;100.00;98271.75;5089986;28;20085;-77
2022/12/01 08:31:52;;;;;;;47.60;24.08;;;;;;;2.49;100.00;98263.81;5092632;28;20024;-79
2022/12/01 08:34:17;;;;;;;9.70;5.43;;;;;;;2.36;100.00;98257.06;5057730;28;20105;-77
2022/12/01 08:36:46;;;;;;;19.83;9.10;;;;;;;2.45;100.00;98250.72;5074264;28;20449;-77
2022/12/01 08:39:11;;;;;;;20.38;10.45;;;;;;;2.60;100.00;98261.00;5074426;28;20034;-76
2022/12/01 08:41:37;;;;;;;12.55;6.00;;;;;;;2.64;100.00;98250.38;5057311;28;20340;-77
2022/12/01 08:44:03;;;;;;;12.60;5.63;;;;;;;2.52;100.00;98241.81;5057393;28;20055;-77
2022/12/01 08:46:33;;;;;;;10.27;5.80;;;;;;;2.75;100.00;98239.56;5090783;28;20024;-78
2022/12/01 08:48:59;;;;;;;18.08;8.52;;;;;;;2.78;100.00;98234.22;5057312;28;20479;-77
2022/12/01 08:51:35;;;;;;;11.05;5.60;;;;;;;2.74;100.00;98227.25;5057099;28;20035;-77
2022/12/01 08:54:01;;;;;;;16.58;8.10;;;;;;;2.90;100.00;98238.38;5073925;28;20456;-76
2022/12/01 08:56:31;;;;;;;14.25;7.25;;;;;;;2.82;100.00;98225.34;5090469;28;20066;-76
2022/12/01 08:58:57;;;;;;;11.80;6.72;;;;;;;3.05;100.00;98238.06;5057026;28;20556;-75
2022/12/01 09:01:26;;;;;;;9.10;4.95;;;;;;;2.85;100.00;98219.13;5056823;28;20439;-77
2022/12/01 09:04:04;;;;;;;11.82;5.75;;;;;;;2.81;100.00;98212.16;5073845;28;20028;-76
2022/12/01 09:06:43;;;;;;;8.05;4.70;;;;;;;3.00;100.00;98226.72;5058215;28;20028;-75
2022/12/01 09:09:17;;;;;;;11.23;5.88;;;;;;;3.20;100.00;98229.78;5056779;28;20028;-76
2022/12/01 09:11:44;;;;;;;13.63;7.28;;;;;;;3.09;100.00;98210.69;5056801;28;20089;-77
2022/12/01 09:14:12;;;;;;;12.73;6.93;;;;;;;3.03;100.00;98189.66;5056700;28;20040;-77
2022/12/01 09:16:38;;;;;;;8.23;5.40;;;;;;;2.79;100.00;98192.84;5056667;28;20028;-77
2022/12/01 09:19:05;;;;;;;9.27;5.32;;;;;;;2.98;100.00;98204.75;5057004;28;20196;-77
2022/12/01 09:21:33;;;;;;;7.82;4.78;;;;;;;2.94;100.00;98197.78;5073067;28;20028;-76
2022/12/01 09:24:00;;;;;;;11.77;6.40;;;;;;;3.01;100.00;98192.38;5073518;28;20021;-77
2022/12/01 09:26:28;;;;;;;10.52;5.50;;;;;;;2.55;100.00;98168.66;5056621;28;20115;-76
2022/12/01 09:29:05;;;;;;;14.27;5.80;;;;;;;2.54;100.00;98180.13;5073388;28;20028;-77
2022/12/01 09:31:34;;;;;;;7.63;4.70;;;;;;;2.38;100.00;98186.63;5055526;28;20383;-77
2022/12/01 09:34:05;;;;;;;10.20;5.55;;;;;;;2.34;100.00;98189.34;5049813;28;20038;-77
2022/12/01 09:36:32;;;;;;;14.43;6.68;;;;;;;2.42;100.00;98180.38;5056316;28;20039;-75
2022/12/01 09:38:58;;;;;;;11.68;6.65;;;;;;;2.18;100.00;98188.78;5056357;28;20088;-77
2022/12/01 09:41:33;;;;;;;11.60;5.97;;;;;;;2.39;100.00;98188.38;5073161;28;20066;-76
2022/12/01 09:44:04;;;;;;;12.45;5.95;;;;;;;2.58;100.00;98204.72;5052423;28;20052;-76
2022/12/01 09:46:40;;;;;;;27.90;13.18;;;;;;;2.58;100.00;98200.31;5072954;28;20422;-78
2022/12/01 09:49:14;;;;;;;9.00;5.70;;;;;;;2.49;100.00;98189.91;5055029;28;20030;-77
2022/12/01 09:51:39;;;;;;;11.23;6.15;;;;;;;2.60;100.00;98177.38;5053072;28;20060;-77
2022/12/01 09:54:05;;;;;;;18.77;9.45;;;;;;;2.88;100.00;98190.00;5052961;28;20448;-76
2022/12/01 09:56:38;;;;;;;12.90;6.38;;;;;;;2.56;100.00;98166.91;5055794;28;20063;-76
2022/12/01 09:59:06;;;;;;;13.23;7.65;;;;;;;2.44;100.00;98154.81;5058523;28;20089;-77
2022/12/01 10:01:35;;;;;;;11.77;6.00;;;;;;;2.50;100.00;98159.97;5084559;28;20128;-77
2022/12/01 10:04:13;;;;;;;6.03;3.42;;;;;;;2.45;100.00;98158.31;5110183;28;20106;-77
2022/12/01 10:06:44;;;;;;;12.63;5.40;;;;;;;2.23;100.00;98146.44;5093205;28;20023;-77
2022/12/01 10:09:40;;;;;;;9.75;5.40;;;;;;;2.45;100.00;98163.59;5088432;28;20034;-77
2022/12/01 10:12:26;;;;;;;10.48;5.70;;;;;;;2.22;100.00;98148.22;5032887;28;20048;-77
2022/12/01 10:15:00;;;;;;;17.50;8.05;;;;;;;2.34;100.00;98147.97;5089619;28;20071;-76
2022/12/01 10:17:34;;;;;;;10.93;5.97;;;;;;;2.43;100.00;98165.41;5054615;28;20036;-78
2022/12/01 10:20:26;;;;;;;12.73;6.45;;;;;;;2.63;100.00;98165.88;5070356;28;20451;-77
2022/12/01 10:22:54;;;;;;;10.93;4.82;;;;;;;2.78;100.00;98173.47;5071663;28;20051;-80
2022/12/01 10:25:22;;;;;;;12.95;5.95;;;;;;;2.99;100.00;98166.84;5069956;28;20039;-79
2022/12/01 10:28:22;;;;;;;10.48;5.35;;;;;;;3.23;100.00;98161.03;5052882;28;20035;-79
2022/12/01 10:30:50;;;;;;;7.65;4.82;;;;;;;2.99;100.00;98130.72;5053004;28;20036;-79
2022/12/01 10:33:40;;;;;;;12.68;5.88;;;;;;;3.10;100.00;98135.78;5052132;28;20576;-80
2022/12/01 10:36:07;;;;;;;16.98;7.53;;;;;;;3.06;100.00;98129.69;5052913;28;20036;-78
2022/12/01 10:38:35;;;;;;;10.25;5.88;;;;;;;2.74;100.00;98108.41;5053223;28;20060;-78
2022/12/01 10:41:01;;;;;;;8.02;4.72;;;;;;;2.78;100.00;98123.28;5069607;28;20415;-78
2022/12/01 10:43:37;;;;;;;12.77;6.10;;;;;;;3.12;100.00;98136.63;5053090;28;20051;-78
2022/12/01 10:46:24;;;;;;;12.70;6.95;;;;;;;2.92;100.00;98115.94;5067972;28;20546;-79
2022/12/01 10:48:58;;;;;;;14.60;7.40;;;;;;;2.68;100.00;98101.50;5069602;28;20126;-79
2022/12/01 10:51:25;;;;;;;15.43;7.38;;;;;;;2.55;100.00;98099.16;5065495;28;20036;-78
2022/12/01 10:54:10;;;;;;;11.50;6.30;;;;;;;2.67;100.00;98112.09;5070067;28;20079;-79
2022/12/01 10:56:39;;;;;;;8.80;4.85;;;;;;;2.45;100.00;98106.41;5055900;28;20031;-78
2022/12/01 10:59:29;;;;;;;10.45;5.22;;;;;;;2.57;100.00;98103.50;5073086;28;20036;-78
2022/12/01 11:01:56;;;;;;;8.65;5.03;;;;;;;2.70;100.00;98112.91;5056367;28;20036;-78
2022/12/01 11:04:41;;;;;;;7.25;4.65;;;;;;;2.89;100.00;98128.34;5068692;28;20074;-79
2022/12/01 11:07:14;;;;;;;9.40;4.95;;;;;;;2.55;100.00;98080.69;5089503;28;20024;-78
2022/12/01 11:09:40;;;;;;;10.07;5.30;;;;;;;2.66;100.00;98086.59;5090420;28;20107;-78
2022/12/01 11:12:19;;;;;;;8.57;5.13;;;;;;;2.73;100.00;98093.47;5038215;28;20028;-80
2022/12/01 11:15:21;;;;;;;12.40;6.80;;;;;;;2.37;100.00;98047.63;5074075;28;20418;-79
2022/12/01 11:18:55;;;;;;;6.28;3.53;;;;;;;2.26;100.00;98030.28;5060953;28;20048;-80
2022/12/01 11:21:48;;;;;;;13.82;8.23;;;;;;;2.45;100.00;98087.06;4976119;28;20057;-80
2022/12/01 11:24:43;;;;;;;22.88;9.63;;;;;;;2.03;100.00;98005.25;5106108;28;20035;-79
2022/12/01 11:27:21;;;;;;;15.23;7.22;;;;;;;2.28;100.00;98087.41;5092221;28;20407;-78
2022/12/01 11:29:52;;;;;;;15.27;8.02;;;;;;;2.35;100.00;98096.06;5056115;28;20407;-80
2022/12/01 11:32:30;;;;;;;13.87;5.50;;;;;;;2.24;100.00;98088.38;5057347;28;20024;-81
2022/12/01 11:35:07;;;;;;;12.73;7.13;;;;;;;2.46;100.00;98097.56;5055783;28;20032;-78
2022/12/01 11:37:36;;;;;;;16.90;7.90;;;;;;;2.67;100.00;98105.06;5090989;28;20028;-79
2022/12/01 11:40:14;;;;;;;7.75;4.80;;;;;;;2.42;100.00;98092.41;5072555;28;20442;-78
2022/12/01 11:42:40;;;;;;;8.63;4.65;;;;;;;2.42;100.00;98081.84;5090575;28;20097;-79
2022/12/01 11:45:26;;;;;;;15.00;7.85;;;;;;;2.59;100.00;98092.91;5055780;28;20453;-79
2022/12/01 11:47:59;;;;;;;16.63;7.55;;;;;;;2.63;100.00;98097.22;5056045;28;20062;-79
2022/12/01 11:50:27;;;;;;;16.70;7.40;;;;;;;2.70;100.00;98094.44;5073864;28;20024;-80
2022/12/01 11:52:53;;;;;;;14.65;7.60;;;;;;;2.48;100.00;98077.31;5057050;28;20059;-79